sensor_id;sensor_type;location;lat;lon;timestamp;temperature;humidity
3186;DHT22;1604;53.700;10.252;2024-01-30T00:00:43;3.70;99.90
3186;DHT22;1604;53.700;10.252;2024-01-30T00:03:46;3.80;99.90
3186;DHT22;1604;53.700;10.252;2024-01-30T00:06:48;3.90;99.90
3186;DHT22;1604;53.700;10.252;2024-01-30T00:09:49;3.90;99.90
3186;DHT22;1604;53.700;10.252;2024-01-30T00:12:53;3.90;99.90
3186;DHT22;1604;53.700;10.252;2024-01-30T00:15:55;4.00;99.90
3186;DHT22;1604;53.700;10.252;2024-01-30T00:18:57;4.00;99.90
3186;DHT22;1604;53.700;10.252;2024-01-30T00:22:00;4.00;99.90
3186;DHT22;1604;53.700;10.252;2024-01-30T00:25:03;4.00;99.90
3186;DHT22;1604;53.700;10.252;2024-01-30T00:28:06;4.00;99.90
3186;DHT22;1604;53.700;10.252;2024-01-30T00:31:08;4.00;99.90
3186;DHT22;1604;53.700;10.252;2024-01-30T00:34:12;4.10;99.90
3186;DHT22;1604;53.700;10.252;2024-01-30T00:37:14;4.10;99.90
3186;DHT22;1604;53.700;10.252;2024-01-30T00:40:16;4.10;99.90
3186;DHT22;1604;53.700;10.252;2024-01-30T00:43:20;4.10;99.90
3186;DHT22;1604;53.700;10.252;2024-01-30T00:46:22;4.00;99.90
3186;DHT22;1604;53.700;10.252;2024-01-30T00:49:24;4.00;99.90
3186;DHT22;1604;53.700;10.252;2024-01-30T00:52:25;4.00;99.90
3186;DHT22;1604;53.700;10.252;2024-01-30T00:55:27;4.00;99.90
3186;DHT22;1604;53.700;10.252;2024-01-30T00:58:31;4.00;99.90
3186;DHT22;1604;53.700;10.252;2024-01-30T01:01:32;4.00;99.90
3186;DHT22;1604;53.700;10.252;2024-01-30T01:04:34;4.00;99.90
3186;DHT22;1604;53.700;10.252;2024-01-30T01:07:36;4.00;99.90
3186;DHT22;1604;53.700;10.252;2024-01-30T01:10:38;4.00;99.90
3186;DHT22;1604;53.700;10.252;2024-01-30T01:13:41;4.00;99.90
3186;DHT22;1604;53.700;10.252;2024-01-30T01:16:43;4.00;99.90
3186;DHT22;1604;53.700;10.252;2024-01-30T01:19:46;4.00;99.90
3186;DHT22;1604;53.700;10.252;2024-01-30T01:22:49;4.00;99.90
3186;DHT22;1604;53.700;10.252;2024-01-30T01:25:50;4.00;99.90
3186;DHT22;1604;53.700;10.252;2024-01-30T01:28:54;4.00;99.90
3186;DHT22;1604;53.700;10.252;2024-01-30T01:31:56;4.00;99.90
3186;DHT22;1604;53.700;10.252;2024-01-30T01:34:58;4.00;99.90
3186;DHT22;1604;53.700;10.252;2024-01-30T01:38:00;4.00;99.90
3186;DHT22;1604;53.700;10.252;2024-01-30T01:41:01;4.00;99.90
3186;DHT22;1604;53.700;10.252;2024-01-30T01:44:05;4.10;99.90
3186;DHT22;1604;53.700;10.252;2024-01-30T01:47:07;4.10;99.90
3186;DHT22;1604;53.700;10.252;2024-01-30T01:50:09;4.10;99.90
3186;DHT22;1604;53.700;10.252;2024-01-30T01:53:12;4.10;99.90
3186;DHT22;1604;53.700;10.252;2024-01-30T01:56:14;4.10;99.90
3186;DHT22;1604;53.700;10.252;2024-01-30T01:59:18;4.10;99.90
3186;DHT22;1604;53.700;10.252;2024-01-30T02:02:22;4.20;99.90
3186;DHT22;1604;53.700;10.252;2024-01-30T02:05:26;4.20;99.90
3186;DHT22;1604;53.700;10.252;2024-01-30T02:08:28;4.20;99.90
3186;DHT22;1604;53.700;10.252;2024-01-30T02:11:30;4.30;99.90
3186;DHT22;1604;53.700;10.252;2024-01-30T02:14:44;4.30;99.90
3186;DHT22;1604;53.700;10.252;2024-01-30T02:17:46;4.30;99.90
3186;DHT22;1604;53.700;10.252;2024-01-30T02:20:48;4.30;99.90
3186;DHT22;1604;53.700;10.252;2024-01-30T02:23:52;4.30;99.90
3186;DHT22;1604;53.700;10.252;2024-01-30T02:26:56;4.30;99.90
3186;DHT22;1604;53.700;10.252;2024-01-30T02:29:58;4.30;99.90
3186;DHT22;1604;53.700;10.252;2024-01-30T02:33:00;4.30;99.90
3186;DHT22;1604;53.700;10.252;2024-01-30T02:36:02;4.30;99.90
3186;DHT22;1604;53.700;10.252;2024-01-30T02:39:06;4.20;99.90
3186;DHT22;1604;53.700;10.252;2024-01-30T02:42:10;4.20;99.90
3186;DHT22;1604;53.700;10.252;2024-01-30T02:45:12;4.20;99.90
3186;DHT22;1604;53.700;10.252;2024-01-30T02:48:14;4.20;99.90
3186;DHT22;1604;53.700;10.252;2024-01-30T02:51:16;4.20;99.90
3186;DHT22;1604;53.700;10.252;2024-01-30T02:54:20;4.20;99.90
3186;DHT22;1604;53.700;10.252;2024-01-30T02:57:22;4.20;99.90
3186;DHT22;1604;53.700;10.252;2024-01-30T03:00:24;4.30;99.90
3186;DHT22;1604;53.700;10.252;2024-01-30T03:03:26;4.40;99.90
3186;DHT22;1604;53.700;10.252;2024-01-30T03:06:28;4.40;99.90
3186;DHT22;1604;53.700;10.252;2024-01-30T03:09:31;4.50;99.90
3186;DHT22;1604;53.700;10.252;2024-01-30T03:12:33;4.50;99.90
3186;DHT22;1604;53.700;10.252;2024-01-30T03:15:35;4.50;99.90
3186;DHT22;1604;53.700;10.252;2024-01-30T03:18:37;4.50;99.90
3186;DHT22;1604;53.700;10.252;2024-01-30T03:21:39;4.50;99.90
3186;DHT22;1604;53.700;10.252;2024-01-30T03:24:42;4.60;99.90
3186;DHT22;1604;53.700;10.252;2024-01-30T03:27:44;4.60;99.90
3186;DHT22;1604;53.700;10.252;2024-01-30T03:30:46;4.60;99.90
3186;DHT22;1604;53.700;10.252;2024-01-30T03:33:48;4.70;99.90
3186;DHT22;1604;53.700;10.252;2024-01-30T03:36:50;4.70;99.90
3186;DHT22;1604;53.700;10.252;2024-01-30T03:39:53;4.70;99.90
3186;DHT22;1604;53.700;10.252;2024-01-30T03:42:55;4.60;99.90
3186;DHT22;1604;53.700;10.252;2024-01-30T03:45:57;4.60;99.90
3186;DHT22;1604;53.700;10.252;2024-01-30T03:48:59;4.60;99.90
3186;DHT22;1604;53.700;10.252;2024-01-30T03:52:01;4.60;99.90
3186;DHT22;1604;53.700;10.252;2024-01-30T03:55:05;4.60;99.90
3186;DHT22;1604;53.700;10.252;2024-01-30T03:58:07;4.60;99.90
3186;DHT22;1604;53.700;10.252;2024-01-30T04:01:13;4.60;99.90
3186;DHT22;1604;53.700;10.252;2024-01-30T04:04:15;4.70;99.90
3186;DHT22;1604;53.700;10.252;2024-01-30T04:07:17;4.80;99.90
3186;DHT22;1604;53.700;10.252;2024-01-30T04:10:21;4.90;99.90
3186;DHT22;1604;53.700;10.252;2024-01-30T04:13:23;4.90;99.90
3186;DHT22;1604;53.700;10.252;2024-01-30T04:16:25;4.90;99.90
3186;DHT22;1604;53.700;10.252;2024-01-30T04:19:27;4.90;99.90
3186;DHT22;1604;53.700;10.252;2024-01-30T04:22:29;4.90;99.90
3186;DHT22;1604;53.700;10.252;2024-01-30T04:25:32;4.90;99.90
3186;DHT22;1604;53.700;10.252;2024-01-30T04:28:34;4.90;99.90
3186;DHT22;1604;53.700;10.252;2024-01-30T04:31:36;4.90;99.90
3186;DHT22;1604;53.700;10.252;2024-01-30T04:34:38;4.90;99.90
3186;DHT22;1604;53.700;10.252;2024-01-30T04:37:40;4.90;99.90
3186;DHT22;1604;53.700;10.252;2024-01-30T04:40:43;4.80;99.90
3186;DHT22;1604;53.700;10.252;2024-01-30T04:43:45;4.80;99.90
3186;DHT22;1604;53.700;10.252;2024-01-30T04:46:47;4.80;99.90
3186;DHT22;1604;53.700;10.252;2024-01-30T04:49:51;4.70;99.90
3186;DHT22;1604;53.700;10.252;2024-01-30T04:52:53;4.70;99.90
3186;DHT22;1604;53.700;10.252;2024-01-30T04:55:56;4.70;99.90
3186;DHT22;1604;53.700;10.252;2024-01-30T04:58:58;4.70;99.90
3186;DHT22;1604;53.700;10.252;2024-01-30T05:02:00;4.70;99.90
3186;DHT22;1604;53.700;10.252;2024-01-30T05:05:02;4.60;99.90
3186;DHT22;1604;53.700;10.252;2024-01-30T05:08:05;4.60;99.90
3186;DHT22;1604;53.700;10.252;2024-01-30T05:11:08;4.50;99.90
3186;DHT22;1604;53.700;10.252;2024-01-30T05:14:11;4.50;99.90
3186;DHT22;1604;53.700;10.252;2024-01-30T05:17:15;4.40;99.90
3186;DHT22;1604;53.700;10.252;2024-01-30T05:20:20;4.40;99.90
3186;DHT22;1604;53.700;10.252;2024-01-30T05:23:22;4.40;99.90
3186;DHT22;1604;53.700;10.252;2024-01-30T05:26:25;4.50;99.90
3186;DHT22;1604;53.700;10.252;2024-01-30T05:29:28;4.50;99.90
3186;DHT22;1604;53.700;10.252;2024-01-30T05:32:29;4.50;99.90
3186;DHT22;1604;53.700;10.252;2024-01-30T05:35:32;4.40;99.90
3186;DHT22;1604;53.700;10.252;2024-01-30T05:38:35;4.40;99.90
3186;DHT22;1604;53.700;10.252;2024-01-30T05:41:39;4.40;99.90
3186;DHT22;1604;53.700;10.252;2024-01-30T05:44:41;4.40;99.90
3186;DHT22;1604;53.700;10.252;2024-01-30T05:47:42;4.40;99.90
3186;DHT22;1604;53.700;10.252;2024-01-30T05:50:44;4.40;99.90
3186;DHT22;1604;53.700;10.252;2024-01-30T05:53:46;4.40;99.90
3186;DHT22;1604;53.700;10.252;2024-01-30T05:56:50;4.40;99.90
3186;DHT22;1604;53.700;10.252;2024-01-30T05:59:51;4.40;99.90
3186;DHT22;1604;53.700;10.252;2024-01-30T06:02:56;4.40;99.90
3186;DHT22;1604;53.700;10.252;2024-01-30T06:05:58;4.40;99.90
3186;DHT22;1604;53.700;10.252;2024-01-30T06:08:59;4.50;99.90
3186;DHT22;1604;53.700;10.252;2024-01-30T06:12:03;4.50;99.90
3186;DHT22;1604;53.700;10.252;2024-01-30T06:15:06;4.50;99.90
3186;DHT22;1604;53.700;10.252;2024-01-30T06:18:08;4.40;99.90
3186;DHT22;1604;53.700;10.252;2024-01-30T06:21:10;4.50;99.90
3186;DHT22;1604;53.700;10.252;2024-01-30T06:24:12;4.50;99.90
3186;DHT22;1604;53.700;10.252;2024-01-30T06:27:16;4.60;99.90
3186;DHT22;1604;53.700;10.252;2024-01-30T06:30:18;4.70;99.90
3186;DHT22;1604;53.700;10.252;2024-01-30T06:33:20;4.70;99.90
3186;DHT22;1604;53.700;10.252;2024-01-30T06:36:22;4.70;99.90
3186;DHT22;1604;53.700;10.252;2024-01-30T06:39:25;4.80;99.90
3186;DHT22;1604;53.700;10.252;2024-01-30T06:42:29;4.80;99.90
3186;DHT22;1604;53.700;10.252;2024-01-30T06:45:31;4.80;99.90
3186;DHT22;1604;53.700;10.252;2024-01-30T06:48:33;4.80;99.90
3186;DHT22;1604;53.700;10.252;2024-01-30T06:51:34;4.80;99.90
3186;DHT22;1604;53.700;10.252;2024-01-30T06:54:38;4.80;99.90
3186;DHT22;1604;53.700;10.252;2024-01-30T06:57:41;4.80;99.90
3186;DHT22;1604;53.700;10.252;2024-01-30T07:00:43;4.80;99.90
3186;DHT22;1604;53.700;10.252;2024-01-30T07:03:46;4.90;99.90
3186;DHT22;1604;53.700;10.252;2024-01-30T07:06:48;4.90;99.90
3186;DHT22;1604;53.700;10.252;2024-01-30T07:09:50;4.80;99.90
3186;DHT22;1604;53.700;10.252;2024-01-30T07:12:58;4.90;99.90
3186;DHT22;1604;53.700;10.252;2024-01-30T07:16:02;4.90;99.90
3186;DHT22;1604;53.700;10.252;2024-01-30T07:19:04;4.80;99.90
3186;DHT22;1604;53.700;10.252;2024-01-30T07:22:05;4.90;99.90
3186;DHT22;1604;53.700;10.252;2024-01-30T07:25:08;4.90;99.90
3186;DHT22;1604;53.700;10.252;2024-01-30T07:28:11;4.90;99.90
3186;DHT22;1604;53.700;10.252;2024-01-30T07:31:14;4.90;99.90
3186;DHT22;1604;53.700;10.252;2024-01-30T07:34:16;4.80;99.90
3186;DHT22;1604;53.700;10.252;2024-01-30T07:37:18;4.80;99.90
3186;DHT22;1604;53.700;10.252;2024-01-30T07:40:20;4.70;99.90
3186;DHT22;1604;53.700;10.252;2024-01-30T07:43:23;4.70;99.90
3186;DHT22;1604;53.700;10.252;2024-01-30T07:46:25;4.70;99.90
3186;DHT22;1604;53.700;10.252;2024-01-30T07:49:27;4.70;99.90
3186;DHT22;1604;53.700;10.252;2024-01-30T07:52:29;4.70;99.90
3186;DHT22;1604;53.700;10.252;2024-01-30T07:55:31;4.70;99.90
3186;DHT22;1604;53.700;10.252;2024-01-30T07:58:34;4.70;99.90
3186;DHT22;1604;53.700;10.252;2024-01-30T08:01:36;4.70;99.90
3186;DHT22;1604;53.700;10.252;2024-01-30T08:04:38;4.80;99.90
3186;DHT22;1604;53.700;10.252;2024-01-30T08:07:40;4.80;99.90
3186;DHT22;1604;53.700;10.252;2024-01-30T08:10:42;4.80;99.90
3186;DHT22;1604;53.700;10.252;2024-01-30T08:13:45;4.90;99.90
3186;DHT22;1604;53.700;10.252;2024-01-30T08:16:47;4.90;99.90
3186;DHT22;1604;53.700;10.252;2024-01-30T08:19:49;4.90;99.90
3186;DHT22;1604;53.700;10.252;2024-01-30T08:22:51;4.90;99.90
3186;DHT22;1604;53.700;10.252;2024-01-30T08:25:53;4.90;99.90
3186;DHT22;1604;53.700;10.252;2024-01-30T08:28:57;4.90;99.90
3186;DHT22;1604;53.700;10.252;2024-01-30T08:31:59;5.00;99.90
3186;DHT22;1604;53.700;10.252;2024-01-30T08:35:01;5.00;99.90
3186;DHT22;1604;53.700;10.252;2024-01-30T08:38:04;5.10;99.90
3186;DHT22;1604;53.700;10.252;2024-01-30T08:41:07;5.10;99.90
3186;DHT22;1604;53.700;10.252;2024-01-30T08:44:11;5.20;99.90
3186;DHT22;1604;53.700;10.252;2024-01-30T08:47:13;5.30;99.90
3186;DHT22;1604;53.700;10.252;2024-01-30T08:50:16;5.50;99.90
3186;DHT22;1604;53.700;10.252;2024-01-30T08:53:19;5.60;99.90
3186;DHT22;1604;53.700;10.252;2024-01-30T08:56:21;5.60;99.90
3186;DHT22;1604;53.700;10.252;2024-01-30T08:59:24;5.70;99.90
3186;DHT22;1604;53.700;10.252;2024-01-30T09:02:26;5.80;99.90
3186;DHT22;1604;53.700;10.252;2024-01-30T09:05:28;5.90;99.90
3186;DHT22;1604;53.700;10.252;2024-01-30T09:08:30;5.90;99.90
3186;DHT22;1604;53.700;10.252;2024-01-30T09:11:32;6.00;99.90
3186;DHT22;1604;53.700;10.252;2024-01-30T09:14:35;6.10;99.90
3186;DHT22;1604;53.700;10.252;2024-01-30T09:17:37;6.20;99.90
3186;DHT22;1604;53.700;10.252;2024-01-30T09:20:39;6.20;99.90
3186;DHT22;1604;53.700;10.252;2024-01-30T09:23:41;6.30;99.90
3186;DHT22;1604;53.700;10.252;2024-01-30T09:26:43;6.30;99.90
3186;DHT22;1604;53.700;10.252;2024-01-30T09:29:46;6.40;99.90
3186;DHT22;1604;53.700;10.252;2024-01-30T09:32:48;6.50;99.90
3186;DHT22;1604;53.700;10.252;2024-01-30T09:35:51;6.60;99.90
3186;DHT22;1604;53.700;10.252;2024-01-30T09:38:53;6.60;99.90
3186;DHT22;1604;53.700;10.252;2024-01-30T09:42:00;6.50;99.90
3186;DHT22;1604;53.700;10.252;2024-01-30T09:45:05;6.60;99.90
3186;DHT22;1604;53.700;10.252;2024-01-30T09:48:07;6.60;99.90
3186;DHT22;1604;53.700;10.252;2024-01-30T09:51:09;6.60;99.90
3186;DHT22;1604;53.700;10.252;2024-01-30T09:54:14;6.70;99.90
3186;DHT22;1604;53.700;10.252;2024-01-30T09:57:17;6.80;99.90
3186;DHT22;1604;53.700;10.252;2024-01-30T10:00:21;6.90;99.90
3186;DHT22;1604;53.700;10.252;2024-01-30T10:03:27;6.90;99.90
3186;DHT22;1604;53.700;10.252;2024-01-30T10:06:29;7.00;99.90
3186;DHT22;1604;53.700;10.252;2024-01-30T10:09:32;7.00;99.90
3186;DHT22;1604;53.700;10.252;2024-01-30T10:12:35;7.20;99.90
3186;DHT22;1604;53.700;10.252;2024-01-30T10:15:38;7.30;99.90
3186;DHT22;1604;53.700;10.252;2024-01-30T10:18:41;7.50;99.90
3186;DHT22;1604;53.700;10.252;2024-01-30T10:21:43;7.60;99.90
3186;DHT22;1604;53.700;10.252;2024-01-30T10:24:45;7.70;99.90
3186;DHT22;1604;53.700;10.252;2024-01-30T10:27:52;7.70;99.90
3186;DHT22;1604;53.700;10.252;2024-01-30T10:30:59;7.70;99.90
3186;DHT22;1604;53.700;10.252;2024-01-30T10:34:01;7.80;99.90
3186;DHT22;1604;53.700;10.252;2024-01-30T10:37:08;7.90;99.90
3186;DHT22;1604;53.700;10.252;2024-01-30T10:40:14;8.00;99.90
3186;DHT22;1604;53.700;10.252;2024-01-30T10:43:19;8.00;99.90
3186;DHT22;1604;53.700;10.252;2024-01-30T10:46:28;8.00;99.90
3186;DHT22;1604;53.700;10.252;2024-01-30T10:49:31;8.10;99.90
3186;DHT22;1604;53.700;10.252;2024-01-30T10:52:34;8.10;99.90
3186;DHT22;1604;53.700;10.252;2024-01-30T10:55:37;8.10;99.90
3186;DHT22;1604;53.700;10.252;2024-01-30T10:58:40;8.20;99.90
3186;DHT22;1604;53.700;10.252;2024-01-30T11:01:44;8.30;99.90
3186;DHT22;1604;53.700;10.252;2024-01-30T11:04:46;8.30;99.90
3186;DHT22;1604;53.700;10.252;2024-01-30T11:07:48;8.40;99.90
3186;DHT22;1604;53.700;10.252;2024-01-30T11:10:55;8.40;99.90
3186;DHT22;1604;53.700;10.252;2024-01-30T11:14:00;8.40;99.90
3186;DHT22;1604;53.700;10.252;2024-01-30T11:17:04;8.50;99.90
3186;DHT22;1604;53.700;10.252;2024-01-30T11:20:10;8.50;99.90
3186;DHT22;1604;53.700;10.252;2024-01-30T11:23:13;8.60;99.90
3186;DHT22;1604;53.700;10.252;2024-01-30T11:26:17;8.60;99.90
3186;DHT22;1604;53.700;10.252;2024-01-30T11:29:24;8.70;99.90
3186;DHT22;1604;53.700;10.252;2024-01-30T11:32:28;8.70;99.90
3186;DHT22;1604;53.700;10.252;2024-01-30T11:35:32;8.80;99.90
3186;DHT22;1604;53.700;10.252;2024-01-30T11:38:34;8.80;99.90
3186;DHT22;1604;53.700;10.252;2024-01-30T11:41:37;8.90;99.90
3186;DHT22;1604;53.700;10.252;2024-01-30T11:44:40;9.00;99.90
3186;DHT22;1604;53.700;10.252;2024-01-30T11:47:43;9.00;99.90
3186;DHT22;1604;53.700;10.252;2024-01-30T11:50:45;8.90;99.90
3186;DHT22;1604;53.700;10.252;2024-01-30T11:53:49;9.00;99.90
3186;DHT22;1604;53.700;10.252;2024-01-30T11:56:51;9.00;99.90
3186;DHT22;1604;53.700;10.252;2024-01-30T11:59:54;8.90;99.90
3186;DHT22;1604;53.700;10.252;2024-01-30T12:02:57;8.90;99.90
3186;DHT22;1604;53.700;10.252;2024-01-30T12:06:03;8.90;99.90
3186;DHT22;1604;53.700;10.252;2024-01-30T12:09:05;9.00;99.90
3186;DHT22;1604;53.700;10.252;2024-01-30T12:12:09;9.00;99.90
3186;DHT22;1604;53.700;10.252;2024-01-30T12:15:13;9.00;99.90
3186;DHT22;1604;53.700;10.252;2024-01-30T12:18:18;9.00;99.90
3186;DHT22;1604;53.700;10.252;2024-01-30T12:21:20;9.00;99.90
3186;DHT22;1604;53.700;10.252;2024-01-30T12:24:22;8.90;99.90
3186;DHT22;1604;53.700;10.252;2024-01-30T12:27:24;9.00;99.90
3186;DHT22;1604;53.700;10.252;2024-01-30T12:30:28;9.10;99.90
3186;DHT22;1604;53.700;10.252;2024-01-30T12:33:32;9.00;99.90
3186;DHT22;1604;53.700;10.252;2024-01-30T12:36:34;9.00;99.90
3186;DHT22;1604;53.700;10.252;2024-01-30T12:39:36;9.00;99.90
3186;DHT22;1604;53.700;10.252;2024-01-30T12:42:38;9.00;99.90
3186;DHT22;1604;53.700;10.252;2024-01-30T12:45:41;9.00;99.90
3186;DHT22;1604;53.700;10.252;2024-01-30T12:48:45;9.00;99.90
3186;DHT22;1604;53.700;10.252;2024-01-30T12:51:47;9.00;99.90
3186;DHT22;1604;53.700;10.252;2024-01-30T12:54:49;9.00;99.90
3186;DHT22;1604;53.700;10.252;2024-01-30T12:57:51;9.00;99.90
3186;DHT22;1604;53.700;10.252;2024-01-30T13:00:53;9.00;99.90
3186;DHT22;1604;53.700;10.252;2024-01-30T13:03:57;9.00;99.90
3186;DHT22;1604;53.700;10.252;2024-01-30T13:06:59;9.00;99.90
3186;DHT22;1604;53.700;10.252;2024-01-30T13:10:02;9.10;99.90
3186;DHT22;1604;53.700;10.252;2024-01-30T13:13:04;9.10;99.90
3186;DHT22;1604;53.700;10.252;2024-01-30T13:16:06;9.10;99.90
3186;DHT22;1604;53.700;10.252;2024-01-30T13:19:10;9.10;99.90
3186;DHT22;1604;53.700;10.252;2024-01-30T13:22:12;9.20;99.90
3186;DHT22;1604;53.700;10.252;2024-01-30T13:25:14;9.20;99.90
3186;DHT22;1604;53.700;10.252;2024-01-30T13:28:16;9.20;99.90
3186;DHT22;1604;53.700;10.252;2024-01-30T13:31:19;9.20;99.90
3186;DHT22;1604;53.700;10.252;2024-01-30T13:34:22;9.20;99.90
3186;DHT22;1604;53.700;10.252;2024-01-30T13:37:26;9.30;99.90
3186;DHT22;1604;53.700;10.252;2024-01-30T13:40:28;9.30;99.90
3186;DHT22;1604;53.700;10.252;2024-01-30T13:43:33;9.30;99.90
3186;DHT22;1604;53.700;10.252;2024-01-30T13:46:36;9.30;99.90
3186;DHT22;1604;53.700;10.252;2024-01-30T13:49:40;9.30;99.90
3186;DHT22;1604;53.700;10.252;2024-01-30T13:52:42;9.30;99.90
3186;DHT22;1604;53.700;10.252;2024-01-30T13:55:44;9.30;99.90
3186;DHT22;1604;53.700;10.252;2024-01-30T13:58:46;9.30;99.90
3186;DHT22;1604;53.700;10.252;2024-01-30T14:01:48;9.40;99.90
3186;DHT22;1604;53.700;10.252;2024-01-30T14:04:54;9.30;99.90
3186;DHT22;1604;53.700;10.252;2024-01-30T14:07:56;9.30;99.90
3186;DHT22;1604;53.700;10.252;2024-01-30T14:10:59;9.30;99.90
3186;DHT22;1604;53.700;10.252;2024-01-30T14:14:01;9.30;99.90
3186;DHT22;1604;53.700;10.252;2024-01-30T14:17:03;9.30;99.90
3186;DHT22;1604;53.700;10.252;2024-01-30T14:20:09;9.20;99.90
3186;DHT22;1604;53.700;10.252;2024-01-30T14:23:11;9.20;99.90
3186;DHT22;1604;53.700;10.252;2024-01-30T14:26:13;9.20;99.90
3186;DHT22;1604;53.700;10.252;2024-01-30T14:29:15;9.20;99.90
3186;DHT22;1604;53.700;10.252;2024-01-30T14:32:17;9.20;99.90
3186;DHT22;1604;53.700;10.252;2024-01-30T14:35:20;9.30;99.90
3186;DHT22;1604;53.700;10.252;2024-01-30T14:38:22;9.30;99.90
3186;DHT22;1604;53.700;10.252;2024-01-30T14:41:25;9.30;99.90
3186;DHT22;1604;53.700;10.252;2024-01-30T14:44:27;9.30;99.90
3186;DHT22;1604;53.700;10.252;2024-01-30T14:47:29;9.40;99.90
3186;DHT22;1604;53.700;10.252;2024-01-30T14:50:33;9.40;99.90
3186;DHT22;1604;53.700;10.252;2024-01-30T14:53:35;9.40;99.90
3186;DHT22;1604;53.700;10.252;2024-01-30T14:56:37;9.50;99.90
3186;DHT22;1604;53.700;10.252;2024-01-30T14:59:39;9.50;99.90
3186;DHT22;1604;53.700;10.252;2024-01-30T15:02:41;9.50;99.90
3186;DHT22;1604;53.700;10.252;2024-01-30T15:05:44;9.50;99.90
3186;DHT22;1604;53.700;10.252;2024-01-30T15:08:46;9.50;99.90
3186;DHT22;1604;53.700;10.252;2024-01-30T15:11:48;9.50;99.90
3186;DHT22;1604;53.700;10.252;2024-01-30T15:14:50;9.60;99.90
3186;DHT22;1604;53.700;10.252;2024-01-30T15:17:52;9.60;99.90
3186;DHT22;1604;53.700;10.252;2024-01-30T15:20:56;9.60;99.90
3186;DHT22;1604;53.700;10.252;2024-01-30T15:23:57;9.60;99.90
3186;DHT22;1604;53.700;10.252;2024-01-30T15:27:00;9.60;99.90
3186;DHT22;1604;53.700;10.252;2024-01-30T15:30:03;9.60;99.90
3186;DHT22;1604;53.700;10.252;2024-01-30T15:33:05;9.60;99.90
3186;DHT22;1604;53.700;10.252;2024-01-30T15:36:09;9.60;99.90
3186;DHT22;1604;53.700;10.252;2024-01-30T15:39:14;9.60;99.90
3186;DHT22;1604;53.700;10.252;2024-01-30T15:42:18;9.60;99.90
3186;DHT22;1604;53.700;10.252;2024-01-30T15:45:20;9.60;99.90
3186;DHT22;1604;53.700;10.252;2024-01-30T15:48:23;9.60;99.90
3186;DHT22;1604;53.700;10.252;2024-01-30T15:51:26;9.60;99.90
3186;DHT22;1604;53.700;10.252;2024-01-30T15:54:28;9.60;99.90
3186;DHT22;1604;53.700;10.252;2024-01-30T15:57:30;9.50;99.90
3186;DHT22;1604;53.700;10.252;2024-01-30T16:00:32;9.50;99.90
3186;DHT22;1604;53.700;10.252;2024-01-30T16:03:34;9.50;99.90
3186;DHT22;1604;53.700;10.252;2024-01-30T16:06:37;9.50;99.90
3186;DHT22;1604;53.700;10.252;2024-01-30T16:09:39;9.60;99.90
3186;DHT22;1604;53.700;10.252;2024-01-30T16:12:42;9.60;99.90
3186;DHT22;1604;53.700;10.252;2024-01-30T16:15:45;9.50;99.90
3186;DHT22;1604;53.700;10.252;2024-01-30T16:18:47;9.60;99.90
3186;DHT22;1604;53.700;10.252;2024-01-30T16:21:51;9.50;99.90
3186;DHT22;1604;53.700;10.252;2024-01-30T16:24:52;9.60;99.90
3186;DHT22;1604;53.700;10.252;2024-01-30T16:27:54;9.50;99.90
3186;DHT22;1604;53.700;10.252;2024-01-30T16:30:56;9.50;99.90
3186;DHT22;1604;53.700;10.252;2024-01-30T16:34:01;9.60;99.90
3186;DHT22;1604;53.700;10.252;2024-01-30T16:37:05;9.60;99.90
3186;DHT22;1604;53.700;10.252;2024-01-30T16:40:08;9.50;99.90
3186;DHT22;1604;53.700;10.252;2024-01-30T16:43:11;9.50;99.90
3186;DHT22;1604;53.700;10.252;2024-01-30T16:46:13;9.50;99.90
3186;DHT22;1604;53.700;10.252;2024-01-30T16:49:15;9.50;99.90
3186;DHT22;1604;53.700;10.252;2024-01-30T16:52:18;9.60;99.90
3186;DHT22;1604;53.700;10.252;2024-01-30T16:55:22;9.60;99.90
3186;DHT22;1604;53.700;10.252;2024-01-30T16:58:26;9.60;99.90
3186;DHT22;1604;53.700;10.252;2024-01-30T17:01:28;9.60;99.90
3186;DHT22;1604;53.700;10.252;2024-01-30T17:04:30;9.60;99.90
3186;DHT22;1604;53.700;10.252;2024-01-30T17:07:35;9.60;99.90
3186;DHT22;1604;53.700;10.252;2024-01-30T17:10:37;9.70;99.90
3186;DHT22;1604;53.700;10.252;2024-01-30T17:13:39;9.70;99.90
3186;DHT22;1604;53.700;10.252;2024-01-30T17:16:41;9.80;99.90
3186;DHT22;1604;53.700;10.252;2024-01-30T17:19:43;9.80;99.90
3186;DHT22;1604;53.700;10.252;2024-01-30T17:22:46;9.80;99.90
3186;DHT22;1604;53.700;10.252;2024-01-30T17:25:48;9.80;99.90
3186;DHT22;1604;53.700;10.252;2024-01-30T17:28:50;9.80;99.90
3186;DHT22;1604;53.700;10.252;2024-01-30T17:31:52;9.90;99.90
3186;DHT22;1604;53.700;10.252;2024-01-30T17:34:54;10.00;99.90
3186;DHT22;1604;53.700;10.252;2024-01-30T17:38:00;10.00;99.90
3186;DHT22;1604;53.700;10.252;2024-01-30T17:41:03;10.00;99.90
3186;DHT22;1604;53.700;10.252;2024-01-30T17:44:05;10.00;99.90
3186;DHT22;1604;53.700;10.252;2024-01-30T17:47:07;10.00;99.90
3186;DHT22;1604;53.700;10.252;2024-01-30T17:50:09;10.00;99.90
3186;DHT22;1604;53.700;10.252;2024-01-30T17:53:13;10.00;99.90
3186;DHT22;1604;53.700;10.252;2024-01-30T17:56:15;10.00;99.90
3186;DHT22;1604;53.700;10.252;2024-01-30T17:59:20;10.10;99.90
3186;DHT22;1604;53.700;10.252;2024-01-30T18:02:23;10.10;99.90
3186;DHT22;1604;53.700;10.252;2024-01-30T18:05:25;10.10;99.90
3186;DHT22;1604;53.700;10.252;2024-01-30T18:08:28;10.10;99.90
3186;DHT22;1604;53.700;10.252;2024-01-30T18:11:30;10.10;99.90
3186;DHT22;1604;53.700;10.252;2024-01-30T18:14:36;10.10;99.90
3186;DHT22;1604;53.700;10.252;2024-01-30T18:17:38;10.20;99.90
3186;DHT22;1604;53.700;10.252;2024-01-30T18:20:40;10.20;99.90
3186;DHT22;1604;53.700;10.252;2024-01-30T18:23:43;10.20;99.90
3186;DHT22;1604;53.700;10.252;2024-01-30T18:26:45;10.10;99.90
3186;DHT22;1604;53.700;10.252;2024-01-30T18:29:47;10.10;99.90
3186;DHT22;1604;53.700;10.252;2024-01-30T18:32:49;10.10;99.90
3186;DHT22;1604;53.700;10.252;2024-01-30T18:35:52;10.00;99.90
3186;DHT22;1604;53.700;10.252;2024-01-30T18:38:56;10.00;99.90
3186;DHT22;1604;53.700;10.252;2024-01-30T18:41:58;10.10;99.90
3186;DHT22;1604;53.700;10.252;2024-01-30T18:45:00;10.10;99.90
3186;DHT22;1604;53.700;10.252;2024-01-30T18:48:02;10.10;99.90
3186;DHT22;1604;53.700;10.252;2024-01-30T18:51:04;10.00;99.90
3186;DHT22;1604;53.700;10.252;2024-01-30T18:54:08;10.10;99.90
3186;DHT22;1604;53.700;10.252;2024-01-30T18:57:09;10.10;99.90
3186;DHT22;1604;53.700;10.252;2024-01-30T19:00:12;10.10;99.90
3186;DHT22;1604;53.700;10.252;2024-01-30T19:03:15;10.10;99.90
3186;DHT22;1604;53.700;10.252;2024-01-30T19:06:18;10.00;99.90
3186;DHT22;1604;53.700;10.252;2024-01-30T19:09:21;10.00;99.90
3186;DHT22;1604;53.700;10.252;2024-01-30T19:12:23;10.00;99.90
3186;DHT22;1604;53.700;10.252;2024-01-30T19:15:25;10.00;99.90
3186;DHT22;1604;53.700;10.252;2024-01-30T19:18:27;10.00;99.90
3186;DHT22;1604;53.700;10.252;2024-01-30T19:21:30;10.00;99.90
3186;DHT22;1604;53.700;10.252;2024-01-30T19:24:33;10.00;99.90
3186;DHT22;1604;53.700;10.252;2024-01-30T19:27:35;9.90;99.90
3186;DHT22;1604;53.700;10.252;2024-01-30T19:30:37;9.90;99.90
3186;DHT22;1604;53.700;10.252;2024-01-30T19:33:40;9.90;99.90
3186;DHT22;1604;53.700;10.252;2024-01-30T19:36:42;9.90;99.90
3186;DHT22;1604;53.700;10.252;2024-01-30T19:39:45;9.90;99.90
3186;DHT22;1604;53.700;10.252;2024-01-30T19:42:48;9.90;99.90
3186;DHT22;1604;53.700;10.252;2024-01-30T19:45:51;9.80;99.90
3186;DHT22;1604;53.700;10.252;2024-01-30T19:48:53;9.80;99.90